sensor_id;sensor_type;location;lat;lon;timestamp;temperature;humidity
6118;DHT22;3089;48.202;11.510;2023-08-06T00:02:02;16.40;99.90
6118;DHT22;3089;48.202;11.510;2023-08-06T00:04:30;16.40;99.90
6118;DHT22;3089;48.202;11.510;2023-08-06T00:06:57;16.40;99.90
6118;DHT22;3089;48.202;11.510;2023-08-06T00:09:25;16.40;99.90
6118;DHT22;3089;48.202;11.510;2023-08-06T00:11:54;16.30;99.90
6118;DHT22;3089;48.202;11.510;2023-08-06T00:14:22;16.30;99.90
6118;DHT22;3089;48.202;11.510;2023-08-06T00:16:50;16.20;99.90
6118;DHT22;3089;48.202;11.510;2023-08-06T00:19:18;15.90;99.90
6118;DHT22;3089;48.202;11.510;2023-08-06T00:21:46;16.10;99.90
6118;DHT22;3089;48.202;11.510;2023-08-06T00:24:14;16.10;99.90
6118;DHT22;3089;48.202;11.510;2023-08-06T00:26:42;16.20;99.90
6118;DHT22;3089;48.202;11.510;2023-08-06T00:29:11;16.20;99.90
6118;DHT22;3089;48.202;11.510;2023-08-06T00:31:39;16.20;99.90
6118;DHT22;3089;48.202;11.510;2023-08-06T00:34:07;15.90;99.90
6118;DHT22;3089;48.202;11.510;2023-08-06T00:36:34;16.20;99.90
6118;DHT22;3089;48.202;11.510;2023-08-06T00:39:02;16.10;99.90
6118;DHT22;3089;48.202;11.510;2023-08-06T00:41:30;16.20;99.90
6118;DHT22;3089;48.202;11.510;2023-08-06T00:43:58;16.10;99.90
6118;DHT22;3089;48.202;11.510;2023-08-06T00:46:27;16.10;99.90
6118;DHT22;3089;48.202;11.510;2023-08-06T00:48:56;16.10;99.90
6118;DHT22;3089;48.202;11.510;2023-08-06T00:51:25;16.10;99.90
6118;DHT22;3089;48.202;11.510;2023-08-06T00:53:53;16.10;99.90
6118;DHT22;3089;48.202;11.510;2023-08-06T00:56:22;16.10;99.90
6118;DHT22;3089;48.202;11.510;2023-08-06T00:58:50;16.10;99.90
6118;DHT22;3089;48.202;11.510;2023-08-06T01:01:18;16.10;99.90
6118;DHT22;3089;48.202;11.510;2023-08-06T01:03:48;16.10;99.90
6118;DHT22;3089;48.202;11.510;2023-08-06T01:06:20;16.10;99.90
6118;DHT22;3089;48.202;11.510;2023-08-06T01:08:56;16.10;99.90
6118;DHT22;3089;48.202;11.510;2023-08-06T01:11:38;16.10;99.90
6118;DHT22;3089;48.202;11.510;2023-08-06T01:14:18;16.00;99.90
6118;DHT22;3089;48.202;11.510;2023-08-06T01:16:50;16.00;99.90
6118;DHT22;3089;48.202;11.510;2023-08-06T01:19:21;16.00;99.90
6118;DHT22;3089;48.202;11.510;2023-08-06T01:21:50;16.00;99.90
6118;DHT22;3089;48.202;11.510;2023-08-06T01:24:18;16.00;99.90
6118;DHT22;3089;48.202;11.510;2023-08-06T01:26:54;16.00;99.90
6118;DHT22;3089;48.202;11.510;2023-08-06T01:29:30;16.00;99.90
6118;DHT22;3089;48.202;11.510;2023-08-06T01:31:59;16.00;99.90
6118;DHT22;3089;48.202;11.510;2023-08-06T01:34:30;16.00;99.90
6118;DHT22;3089;48.202;11.510;2023-08-06T01:37:01;15.90;99.90
6118;DHT22;3089;48.202;11.510;2023-08-06T01:39:29;15.90;99.90
6118;DHT22;3089;48.202;11.510;2023-08-06T01:41:57;15.90;99.90
6118;DHT22;3089;48.202;11.510;2023-08-06T01:44:25;15.90;99.90
6118;DHT22;3089;48.202;11.510;2023-08-06T01:46:53;15.90;99.90
6118;DHT22;3089;48.202;11.510;2023-08-06T01:49:21;15.90;99.90
6118;DHT22;3089;48.202;11.510;2023-08-06T01:51:49;15.90;99.90
6118;DHT22;3089;48.202;11.510;2023-08-06T01:54:18;15.90;99.90
6118;DHT22;3089;48.202;11.510;2023-08-06T01:56:46;15.90;99.90
6118;DHT22;3089;48.202;11.510;2023-08-06T01:59:14;15.80;99.90
6118;DHT22;3089;48.202;11.510;2023-08-06T02:01:42;15.80;99.90
6118;DHT22;3089;48.202;11.510;2023-08-06T02:04:10;15.80;99.90
6118;DHT22;3089;48.202;11.510;2023-08-06T02:06:38;15.80;99.90
6118;DHT22;3089;48.202;11.510;2023-08-06T02:09:06;15.90;99.90
6118;DHT22;3089;48.202;11.510;2023-08-06T02:11:35;15.90;99.90
6118;DHT22;3089;48.202;11.510;2023-08-06T02:14:03;15.80;99.90
6118;DHT22;3089;48.202;11.510;2023-08-06T02:16:31;15.80;99.90
6118;DHT22;3089;48.202;11.510;2023-08-06T02:18:58;15.80;99.90
6118;DHT22;3089;48.202;11.510;2023-08-06T02:21:26;15.80;99.90
6118;DHT22;3089;48.202;11.510;2023-08-06T02:23:54;15.70;99.90
6118;DHT22;3089;48.202;11.510;2023-08-06T02:26:22;15.80;99.90
6118;DHT22;3089;48.202;11.510;2023-08-06T02:28:51;15.80;99.90
6118;DHT22;3089;48.202;11.510;2023-08-06T02:31:19;15.80;99.90
6118;DHT22;3089;48.202;11.510;2023-08-06T02:33:47;15.70;99.90
6118;DHT22;3089;48.202;11.510;2023-08-06T02:36:15;15.80;99.90
6118;DHT22;3089;48.202;11.510;2023-08-06T02:38:43;15.70;99.90
6118;DHT22;3089;48.202;11.510;2023-08-06T02:41:10;15.70;99.90
6118;DHT22;3089;48.202;11.510;2023-08-06T02:43:38;15.70;99.90
6118;DHT22;3089;48.202;11.510;2023-08-06T02:46:08;15.70;99.90
6118;DHT22;3089;48.202;11.510;2023-08-06T02:48:36;15.60;99.90
6118;DHT22;3089;48.202;11.510;2023-08-06T02:51:04;15.60;99.90
6118;DHT22;3089;48.202;11.510;2023-08-06T02:53:32;15.50;99.90
6118;DHT22;3089;48.202;11.510;2023-08-06T02:55:59;15.50;99.90
6118;DHT22;3089;48.202;11.510;2023-08-06T02:58:27;15.60;99.90
6118;DHT22;3089;48.202;11.510;2023-08-06T03:01:02;15.60;99.90
6118;DHT22;3089;48.202;11.510;2023-08-06T03:03:32;15.60;99.90
6118;DHT22;3089;48.202;11.510;2023-08-06T03:06:00;15.50;99.90
6118;DHT22;3089;48.202;11.510;2023-08-06T03:08:28;15.50;99.90
6118;DHT22;3089;48.202;11.510;2023-08-06T03:10:56;15.50;99.90
6118;DHT22;3089;48.202;11.510;2023-08-06T03:13:24;15.50;99.90
6118;DHT22;3089;48.202;11.510;2023-08-06T03:15:53;15.50;99.90
6118;DHT22;3089;48.202;11.510;2023-08-06T03:18:21;15.40;99.90
6118;DHT22;3089;48.202;11.510;2023-08-06T03:20:51;15.40;99.90
6118;DHT22;3089;48.202;11.510;2023-08-06T03:23:19;15.40;99.90
6118;DHT22;3089;48.202;11.510;2023-08-06T03:25:47;15.40;99.90
6118;DHT22;3089;48.202;11.510;2023-08-06T03:28:15;15.40;99.90
6118;DHT22;3089;48.202;11.510;2023-08-06T03:30:43;15.50;99.90
6118;DHT22;3089;48.202;11.510;2023-08-06T03:33:11;15.50;99.90
6118;DHT22;3089;48.202;11.510;2023-08-06T03:35:39;15.40;99.90
6118;DHT22;3089;48.202;11.510;2023-08-06T03:38:08;15.40;99.90
6118;DHT22;3089;48.202;11.510;2023-08-06T03:40:36;15.40;99.90
6118;DHT22;3089;48.202;11.510;2023-08-06T03:43:04;15.40;99.90
6118;DHT22;3089;48.202;11.510;2023-08-06T03:45:32;15.40;99.90
6118;DHT22;3089;48.202;11.510;2023-08-06T03:48:00;15.30;99.90
6118;DHT22;3089;48.202;11.510;2023-08-06T03:50:28;15.30;99.90
6118;DHT22;3089;48.202;11.510;2023-08-06T03:52:56;15.30;99.90
6118;DHT22;3089;48.202;11.510;2023-08-06T03:55:25;15.30;99.90
6118;DHT22;3089;48.202;11.510;2023-08-06T03:57:53;15.30;99.90
6118;DHT22;3089;48.202;11.510;2023-08-06T04:00:21;15.30;99.90
6118;DHT22;3089;48.202;11.510;2023-08-06T04:02:49;15.30;99.90
6118;DHT22;3089;48.202;11.510;2023-08-06T04:05:17;15.30;99.90
6118;DHT22;3089;48.202;11.510;2023-08-06T04:07:45;15.30;99.90
6118;DHT22;3089;48.202;11.510;2023-08-06T04:10:13;15.30;99.90
6118;DHT22;3089;48.202;11.510;2023-08-06T04:12:42;15.30;99.90
6118;DHT22;3089;48.202;11.510;2023-08-06T04:15:10;15.30;99.90
6118;DHT22;3089;48.202;11.510;2023-08-06T04:17:37;15.30;99.90
6118;DHT22;3089;48.202;11.510;2023-08-06T04:20:06;15.30;99.90
6118;DHT22;3089;48.202;11.510;2023-08-06T04:22:34;15.20;99.90
6118;DHT22;3089;48.202;11.510;2023-08-06T04:25:03;15.30;99.90
6118;DHT22;3089;48.202;11.510;2023-08-06T04:27:30;15.30;99.90
6118;DHT22;3089;48.202;11.510;2023-08-06T04:30:00;15.30;99.90
6118;DHT22;3089;48.202;11.510;2023-08-06T04:32:28;15.30;99.90
6118;DHT22;3089;48.202;11.510;2023-08-06T04:34:56;15.30;99.90
6118;DHT22;3089;48.202;11.510;2023-08-06T04:37:24;15.30;99.90
6118;DHT22;3089;48.202;11.510;2023-08-06T04:39:52;15.30;99.90
6118;DHT22;3089;48.202;11.510;2023-08-06T04:42:20;15.20;99.90
6118;DHT22;3089;48.202;11.510;2023-08-06T04:44:47;15.30;99.90
6118;DHT22;3089;48.202;11.510;2023-08-06T04:47:17;15.30;99.90
6118;DHT22;3089;48.202;11.510;2023-08-06T04:49:45;15.40;99.90
6118;DHT22;3089;48.202;11.510;2023-08-06T04:52:12;15.40;99.90
6118;DHT22;3089;48.202;11.510;2023-08-06T04:54:40;15.40;99.90
6118;DHT22;3089;48.202;11.510;2023-08-06T04:57:08;15.40;99.90
6118;DHT22;3089;48.202;11.510;2023-08-06T04:59:36;15.40;99.90
6118;DHT22;3089;48.202;11.510;2023-08-06T05:02:04;15.40;99.90
6118;DHT22;3089;48.202;11.510;2023-08-06T05:04:33;15.40;99.90
6118;DHT22;3089;48.202;11.510;2023-08-06T05:07:01;15.50;99.90
6118;DHT22;3089;48.202;11.510;2023-08-06T05:09:29;15.40;99.90
6118;DHT22;3089;48.202;11.510;2023-08-06T05:11:57;15.30;99.90
6118;DHT22;3089;48.202;11.510;2023-08-06T05:14:24;15.30;99.90
6118;DHT22;3089;48.202;11.510;2023-08-06T05:16:52;15.30;99.90
6118;DHT22;3089;48.202;11.510;2023-08-06T05:19:20;15.30;99.90
6118;DHT22;3089;48.202;11.510;2023-08-06T05:21:49;15.30;99.90
6118;DHT22;3089;48.202;11.510;2023-08-06T05:24:18;15.30;99.90
6118;DHT22;3089;48.202;11.510;2023-08-06T05:26:48;15.30;99.90
6118;DHT22;3089;48.202;11.510;2023-08-06T05:29:16;15.30;99.90
6118;DHT22;3089;48.202;11.510;2023-08-06T05:31:44;15.30;99.90
6118;DHT22;3089;48.202;11.510;2023-08-06T05:34:12;15.70;99.90
6118;DHT22;3089;48.202;11.510;2023-08-06T05:36:40;15.50;99.90
6118;DHT22;3089;48.202;11.510;2023-08-06T05:39:09;15.40;99.90
6118;DHT22;3089;48.202;11.510;2023-08-06T05:41:37;15.30;99.90
6118;DHT22;3089;48.202;11.510;2023-08-06T05:44:05;15.30;99.90
6118;DHT22;3089;48.202;11.510;2023-08-06T05:46:33;15.30;99.90
6118;DHT22;3089;48.202;11.510;2023-08-06T05:49:01;15.30;99.90
6118;DHT22;3089;48.202;11.510;2023-08-06T05:51:29;15.30;99.90
6118;DHT22;3089;48.202;11.510;2023-08-06T05:53:56;15.40;99.90
6118;DHT22;3089;48.202;11.510;2023-08-06T05:56:26;15.40;99.90
6118;DHT22;3089;48.202;11.510;2023-08-06T05:58:53;15.40;99.90
6118;DHT22;3089;48.202;11.510;2023-08-06T06:01:21;15.40;99.90
6118;DHT22;3089;48.202;11.510;2023-08-06T06:03:50;15.30;99.90
6118;DHT22;3089;48.202;11.510;2023-08-06T06:06:18;15.40;99.90
6118;DHT22;3089;48.202;11.510;2023-08-06T06:08:46;15.40;99.90
6118;DHT22;3089;48.202;11.510;2023-08-06T06:11:14;15.50;99.90
6118;DHT22;3089;48.202;11.510;2023-08-06T06:13:43;15.50;99.90
6118;DHT22;3089;48.202;11.510;2023-08-06T06:16:11;15.50;99.90
6118;DHT22;3089;48.202;11.510;2023-08-06T06:18:39;15.50;99.90
6118;DHT22;3089;48.202;11.510;2023-08-06T06:21:07;15.60;99.90
6118;DHT22;3089;48.202;11.510;2023-08-06T06:23:35;15.60;99.90
6118;DHT22;3089;48.202;11.510;2023-08-06T06:26:03;15.70;99.90
6118;DHT22;3089;48.202;11.510;2023-08-06T06:28:31;15.60;99.90
6118;DHT22;3089;48.202;11.510;2023-08-06T06:31:01;15.60;99.90
6118;DHT22;3089;48.202;11.510;2023-08-06T06:33:30;15.60;99.90
6118;DHT22;3089;48.202;11.510;2023-08-06T06:35:58;15.60;99.90
6118;DHT22;3089;48.202;11.510;2023-08-06T06:38:26;15.50;99.90
6118;DHT22;3089;48.202;11.510;2023-08-06T06:40:54;15.60;99.90
6118;DHT22;3089;48.202;11.510;2023-08-06T06:43:22;15.60;99.90
6118;DHT22;3089;48.202;11.510;2023-08-06T06:45:52;15.60;99.90
6118;DHT22;3089;48.202;11.510;2023-08-06T06:48:22;15.70;99.90
6118;DHT22;3089;48.202;11.510;2023-08-06T06:50:50;15.90;99.90
6118;DHT22;3089;48.202;11.510;2023-08-06T06:53:18;16.10;99.90
6118;DHT22;3089;48.202;11.510;2023-08-06T06:55:48;16.10;99.90
6118;DHT22;3089;48.202;11.510;2023-08-06T06:58:16;16.30;99.90
6118;DHT22;3089;48.202;11.510;2023-08-06T07:00:43;16.40;99.90
6118;DHT22;3089;48.202;11.510;2023-08-06T07:03:11;16.40;99.90
6118;DHT22;3089;48.202;11.510;2023-08-06T07:05:41;17.00;99.90
6118;DHT22;3089;48.202;11.510;2023-08-06T07:08:09;18.00;99.90
6118;DHT22;3089;48.202;11.510;2023-08-06T07:10:37;17.70;99.90
6118;DHT22;3089;48.202;11.510;2023-08-06T07:13:08;16.70;99.90
6118;DHT22;3089;48.202;11.510;2023-08-06T07:15:36;16.60;99.90
6118;DHT22;3089;48.202;11.510;2023-08-06T07:18:04;16.40;99.90
6118;DHT22;3089;48.202;11.510;2023-08-06T07:20:32;16.20;99.90
6118;DHT22;3089;48.202;11.510;2023-08-06T07:23:02;16.10;99.90
6118;DHT22;3089;48.202;11.510;2023-08-06T07:25:32;16.10;99.90
6118;DHT22;3089;48.202;11.510;2023-08-06T07:28:00;16.00;99.90
6118;DHT22;3089;48.202;11.510;2023-08-06T07:30:29;15.90;99.90
6118;DHT22;3089;48.202;11.510;2023-08-06T07:32:57;15.90;99.90
6118;DHT22;3089;48.202;11.510;2023-08-06T07:35:25;15.90;99.90
6118;DHT22;3089;48.202;11.510;2023-08-06T07:37:56;15.80;99.90
6118;DHT22;3089;48.202;11.510;2023-08-06T07:40:25;15.90;99.90
6118;DHT22;3089;48.202;11.510;2023-08-06T07:42:53;15.90;99.90
6118;DHT22;3089;48.202;11.510;2023-08-06T07:45:21;16.00;99.90
6118;DHT22;3089;48.202;11.510;2023-08-06T07:47:49;16.00;99.90
6118;DHT22;3089;48.202;11.510;2023-08-06T07:50:18;16.00;99.90
6118;DHT22;3089;48.202;11.510;2023-08-06T07:52:45;16.10;99.90
6118;DHT22;3089;48.202;11.510;2023-08-06T07:55:13;16.10;99.90
6118;DHT22;3089;48.202;11.510;2023-08-06T07:57:43;16.10;99.90
6118;DHT22;3089;48.202;11.510;2023-08-06T08:00:11;16.10;99.90
6118;DHT22;3089;48.202;11.510;2023-08-06T08:02:39;16.00;99.90
6118;DHT22;3089;48.202;11.510;2023-08-06T08:05:07;16.10;99.90
6118;DHT22;3089;48.202;11.510;2023-08-06T08:07:35;16.20;99.90
6118;DHT22;3089;48.202;11.510;2023-08-06T08:10:04;16.20;99.90
6118;DHT22;3089;48.202;11.510;2023-08-06T08:12:32;16.20;99.90
6118;DHT22;3089;48.202;11.510;2023-08-06T08:15:02;16.20;99.90
6118;DHT22;3089;48.202;11.510;2023-08-06T08:17:30;16.20;99.90
6118;DHT22;3089;48.202;11.510;2023-08-06T08:19:58;16.30;99.90
6118;DHT22;3089;48.202;11.510;2023-08-06T08:22:26;16.30;99.90
6118;DHT22;3089;48.202;11.510;2023-08-06T08:24:54;16.60;99.90
6118;DHT22;3089;48.202;11.510;2023-08-06T08:27:22;16.60;99.90
6118;DHT22;3089;48.202;11.510;2023-08-06T08:29:50;16.60;99.90
6118;DHT22;3089;48.202;11.510;2023-08-06T08:32:19;16.50;99.90
6118;DHT22;3089;48.202;11.510;2023-08-06T08:34:47;16.40;99.90
6118;DHT22;3089;48.202;11.510;2023-08-06T08:37:15;16.50;99.90
6118;DHT22;3089;48.202;11.510;2023-08-06T08:39:43;16.50;99.90
6118;DHT22;3089;48.202;11.510;2023-08-06T08:42:11;16.50;99.90
6118;DHT22;3089;48.202;11.510;2023-08-06T08:44:40;16.60;99.90
6118;DHT22;3089;48.202;11.510;2023-08-06T08:47:09;16.50;99.90
6118;DHT22;3089;48.202;11.510;2023-08-06T08:49:38;16.50;99.90
6118;DHT22;3089;48.202;11.510;2023-08-06T08:52:10;16.30;99.90
6118;DHT22;3089;48.202;11.510;2023-08-06T08:54:40;16.30;99.90
6118;DHT22;3089;48.202;11.510;2023-08-06T08:57:08;16.20;99.90
6118;DHT22;3089;48.202;11.510;2023-08-06T08:59:36;16.20;99.90
6118;DHT22;3089;48.202;11.510;2023-08-06T09:02:04;16.30;99.90
6118;DHT22;3089;48.202;11.510;2023-08-06T09:04:33;16.20;99.90
6118;DHT22;3089;48.202;11.510;2023-08-06T09:07:04;16.20;99.90
6118;DHT22;3089;48.202;11.510;2023-08-06T09:09:34;16.20;99.90
6118;DHT22;3089;48.202;11.510;2023-08-06T09:12:09;16.20;99.90
6118;DHT22;3089;48.202;11.510;2023-08-06T09:14:38;16.20;99.90
6118;DHT22;3089;48.202;11.510;2023-08-06T09:17:06;16.10;99.90
6118;DHT22;3089;48.202;11.510;2023-08-06T09:19:37;16.10;99.90
6118;DHT22;3089;48.202;11.510;2023-08-06T09:22:06;16.10;99.90
6118;DHT22;3089;48.202;11.510;2023-08-06T09:24:41;16.10;99.90
6118;DHT22;3089;48.202;11.510;2023-08-06T09:27:12;16.10;99.90
6118;DHT22;3089;48.202;11.510;2023-08-06T09:29:42;16.00;99.90
6118;DHT22;3089;48.202;11.510;2023-08-06T09:32:12;16.20;99.90
6118;DHT22;3089;48.202;11.510;2023-08-06T09:34:41;16.20;99.90
6118;DHT22;3089;48.202;11.510;2023-08-06T09:37:11;16.10;99.90
6118;DHT22;3089;48.202;11.510;2023-08-06T09:39:40;16.30;99.90
6118;DHT22;3089;48.202;11.510;2023-08-06T09:42:08;16.30;99.90
6118;DHT22;3089;48.202;11.510;2023-08-06T09:44:36;16.30;99.90
6118;DHT22;3089;48.202;11.510;2023-08-06T09:47:06;16.30;99.90
6118;DHT22;3089;48.202;11.510;2023-08-06T09:49:43;16.20;99.90
6118;DHT22;3089;48.202;11.510;2023-08-06T09:52:13;16.20;99.90
6118;DHT22;3089;48.202;11.510;2023-08-06T09:54:43;16.20;99.90
6118;DHT22;3089;48.202;11.510;2023-08-06T09:57:12;16.30;99.90
6118;DHT22;3089;48.202;11.510;2023-08-06T09:59:42;16.40;99.90
6118;DHT22;3089;48.202;11.510;2023-08-06T10:02:13;16.30;99.90
6118;DHT22;3089;48.202;11.510;2023-08-06T10:04:43;16.20;99.90
6118;DHT22;3089;48.202;11.510;2023-08-06T10:07:22;16.10;99.90
6118;DHT22;3089;48.202;11.510;2023-08-06T10:09:51;16.20;99.90
6118;DHT22;3089;48.202;11.510;2023-08-06T10:12:19;16.30;99.90
6118;DHT22;3089;48.202;11.510;2023-08-06T10:14:49;16.50;99.90
6118;DHT22;3089;48.202;11.510;2023-08-06T10:17:17;16.40;99.90
6118;DHT22;3089;48.202;11.510;2023-08-06T10:19:46;16.50;99.90
6118;DHT22;3089;48.202;11.510;2023-08-06T10:22:15;16.50;99.90
6118;DHT22;3089;48.202;11.510;2023-08-06T10:24:49;16.60;99.90
6118;DHT22;3089;48.202;11.510;2023-08-06T10:27:28;16.60;99.90
6118;DHT22;3089;48.202;11.510;2023-08-06T10:29:56;16.50;99.90
6118;DHT22;3089;48.202;11.510;2023-08-06T10:32:48;16.40;99.90
6118;DHT22;3089;48.202;11.510;2023-08-06T10:35:30;16.40;99.90
6118;DHT22;3089;48.202;11.510;2023-08-06T10:37:59;16.40;99.90
6118;DHT22;3089;48.202;11.510;2023-08-06T10:40:32;16.40;99.90
6118;DHT22;3089;48.202;11.510;2023-08-06T10:43:00;16.80;99.90
6118;DHT22;3089;48.202;11.510;2023-08-06T10:45:28;16.90;99.90
6118;DHT22;3089;48.202;11.510;2023-08-06T10:47:57;16.70;99.90
6118;DHT22;3089;48.202;11.510;2023-08-06T10:50:25;16.70;99.90
6118;DHT22;3089;48.202;11.510;2023-08-06T10:52:53;16.80;99.90
6118;DHT22;3089;48.202;11.510;2023-08-06T10:55:25;16.80;99.90
6118;DHT22;3089;48.202;11.510;2023-08-06T10:57:55;17.00;99.90
6118;DHT22;3089;48.202;11.510;2023-08-06T11:00:23;17.20;99.90
6118;DHT22;3089;48.202;11.510;2023-08-06T11:02:52;17.10;99.90
6118;DHT22;3089;48.202;11.510;2023-08-06T11:05:21;17.10;99.90
6118;DHT22;3089;48.202;11.510;2023-08-06T11:07:49;17.00;99.90
6118;DHT22;3089;48.202;11.510;2023-08-06T11:10:18;16.90;99.90
6118;DHT22;3089;48.202;11.510;2023-08-06T11:12:45;16.70;99.90
6118;DHT22;3089;48.202;11.510;2023-08-06T11:15:15;16.60;99.90
6118;DHT22;3089;48.202;11.510;2023-08-06T11:17:43;16.60;99.90
6118;DHT22;3089;48.202;11.510;2023-08-06T11:20:11;16.60;99.90
6118;DHT22;3089;48.202;11.510;2023-08-06T11:22:42;16.70;99.90
6118;DHT22;3089;48.202;11.510;2023-08-06T11:25:10;16.80;99.90
6118;DHT22;3089;48.202;11.510;2023-08-06T11:27:38;16.80;99.90
6118;DHT22;3089;48.202;11.510;2023-08-06T11:30:08;16.70;99.90
6118;DHT22;3089;48.202;11.510;2023-08-06T11:32:46;16.70;99.90
6118;DHT22;3089;48.202;11.510;2023-08-06T11:35:15;16.70;99.90
6118;DHT22;3089;48.202;11.510;2023-08-06T11:37:44;16.80;99.90
6118;DHT22;3089;48.202;11.510;2023-08-06T11:40:14;16.90;99.90
6118;DHT22;3089;48.202;11.510;2023-08-06T11:42:43;17.20;99.90
6118;DHT22;3089;48.202;11.510;2023-08-06T11:45:11;17.40;99.90
6118;DHT22;3089;48.202;11.510;2023-08-06T11:47:39;17.20;99.90
6118;DHT22;3089;48.202;11.510;2023-08-06T11:50:22;17.00;99.90
6118;DHT22;3089;48.202;11.510;2023-08-06T11:52:53;16.80;99.90
6118;DHT22;3089;48.202;11.510;2023-08-06T11:55:25;16.90;99.90
6118;DHT22;3089;48.202;11.510;2023-08-06T11:57:57;16.90;99.90
6118;DHT22;3089;48.202;11.510;2023-08-06T12:00:31;17.00;99.90
6118;DHT22;3089;48.202;11.510;2023-08-06T12:02:59;17.00;99.90
6118;DHT22;3089;48.202;11.510;2023-08-06T12:05:31;17.10;99.90
6118;DHT22;3089;48.202;11.510;2023-08-06T12:08:00;17.20;99.90
6118;DHT22;3089;48.202;11.510;2023-08-06T12:10:30;17.30;99.90
6118;DHT22;3089;48.202;11.510;2023-08-06T12:12:58;17.20;99.90
6118;DHT22;3089;48.202;11.510;2023-08-06T12:15:26;17.20;99.90
6118;DHT22;3089;48.202;11.510;2023-08-06T12:17:56;17.10;99.90
6118;DHT22;3089;48.202;11.510;2023-08-06T12:20:24;17.20;99.90
6118;DHT22;3089;48.202;11.510;2023-08-06T12:22:53;17.30;99.90
6118;DHT22;3089;48.202;11.510;2023-08-06T12:25:21;17.10;99.90
6118;DHT22;3089;48.202;11.510;2023-08-06T12:27:50;17.00;99.90
6118;DHT22;3089;48.202;11.510;2023-08-06T12:30:18;17.00;99.90
6118;DHT22;3089;48.202;11.510;2023-08-06T12:32:46;17.10;99.90
6118;DHT22;3089;48.202;11.510;2023-08-06T12:35:14;16.90;99.90
6118;DHT22;3089;48.202;11.510;2023-08-06T12:37:42;16.90;99.90
6118;DHT22;3089;48.202;11.510;2023-08-06T12:40:12;16.70;99.90
6118;DHT22;3089;48.202;11.510;2023-08-06T12:42:42;16.70;99.90
6118;DHT22;3089;48.202;11.510;2023-08-06T12:45:10;16.70;99.90
6118;DHT22;3089;48.202;11.510;2023-08-06T12:47:38;16.80;99.90
6118;DHT22;3089;48.202;11.510;2023-08-06T12:50:07;16.80;99.90
6118;DHT22;3089;48.202;11.510;2023-08-06T12:52:35;16.90;99.90
6118;DHT22;3089;48.202;11.510;2023-08-06T12:55:03;17.00;99.90
6118;DHT22;3089;48.202;11.510;2023-08-06T12:57:33;17.10;99.90
6118;DHT22;3089;48.202;11.510;2023-08-06T13:00:21;17.20;99.90
6118;DHT22;3089;48.202;11.510;2023-08-06T13:02:49;17.30;99.90
6118;DHT22;3089;48.202;11.510;2023-08-06T13:05:17;17.20;99.90
6118;DHT22;3089;48.202;11.510;2023-08-06T13:07:44;17.20;99.90
6118;DHT22;3089;48.202;11.510;2023-08-06T13:10:12;17.20;99.90
6118;DHT22;3089;48.202;11.510;2023-08-06T13:12:42;17.20;99.90
6118;DHT22;3089;48.202;11.510;2023-08-06T13:15:10;17.10;99.90
6118;DHT22;3089;48.202;11.510;2023-08-06T13:17:38;17.10;99.90
6118;DHT22;3089;48.202;11.510;2023-08-06T13:20:07;17.10;99.90
6118;DHT22;3089;48.202;11.510;2023-08-06T13:22:35;17.10;99.90
6118;DHT22;3089;48.202;11.510;2023-08-06T13:25:03;16.90;99.90
6118;DHT22;3089;48.202;11.510;2023-08-06T13:27:31;16.80;99.90
6118;DHT22;3089;48.202;11.510;2023-08-06T13:30:00;16.90;99.90
6118;DHT22;3089;48.202;11.510;2023-08-06T13:32:29;16.80;99.90
6118;DHT22;3089;48.202;11.510;2023-08-06T13:34:57;16.90;99.90
6118;DHT22;3089;48.202;11.510;2023-08-06T13:37:25;17.00;99.90
6118;DHT22;3089;48.202;11.510;2023-08-06T13:39:53;17.30;99.90
6118;DHT22;3089;48.202;11.510;2023-08-06T13:42:22;17.50;99.90
6118;DHT22;3089;48.202;11.510;2023-08-06T13:44:50;17.20;99.90
6118;DHT22;3089;48.202;11.510;2023-08-06T13:47:19;17.10;99.90
6118;DHT22;3089;48.202;11.510;2023-08-06T13:49:47;17.00;99.90
6118;DHT22;3089;48.202;11.510;2023-08-06T13:52:15;16.90;99.90
6118;DHT22;3089;48.202;11.510;2023-08-06T13:54:48;16.80;99.90
6118;DHT22;3089;48.202;11.510;2023-08-06T13:57:16;16.70;99.90
6118;DHT22;3089;48.202;11.510;2023-08-06T13:59:44;16.60;99.90
6118;DHT22;3089;48.202;11.510;2023-08-06T14:02:12;16.70;99.90
6118;DHT22;3089;48.202;11.510;2023-08-06T14:04:42;16.60;99.90
6118;DHT22;3089;48.202;11.510;2023-08-06T14:07:10;16.70;99.90
6118;DHT22;3089;48.202;11.510;2023-08-06T14:09:40;16.80;99.90
6118;DHT22;3089;48.202;11.510;2023-08-06T14:12:10;16.90;99.90
6118;DHT22;3089;48.202;11.510;2023-08-06T14:14:38;16.90;99.90
6118;DHT22;3089;48.202;11.510;2023-08-06T14:17:06;16.80;99.90
6118;DHT22;3089;48.202;11.510;2023-08-06T14:19:34;16.70;99.90
6118;DHT22;3089;48.202;11.510;2023-08-06T14:22:03;16.70;99.90
6118;DHT22;3089;48.202;11.510;2023-08-06T14:24:31;16.80;99.90
6118;DHT22;3089;48.202;11.510;2023-08-06T14:26:59;16.90;99.90
6118;DHT22;3089;48.202;11.510;2023-08-06T14:29:27;16.80;99.90
6118;DHT22;3089;48.202;11.510;2023-08-06T14:31:55;16.70;99.90
6118;DHT22;3089;48.202;11.510;2023-08-06T14:34:22;16.60;99.90
6118;DHT22;3089;48.202;11.510;2023-08-06T14:36:50;16.50;99.90
6118;DHT22;3089;48.202;11.510;2023-08-06T14:39:20;16.50;99.90
6118;DHT22;3089;48.202;11.510;2023-08-06T14:41:48;16.40;99.90
6118;DHT22;3089;48.202;11.510;2023-08-06T14:44:16;16.40;99.90
6118;DHT22;3089;48.202;11.510;2023-08-06T14:46:43;16.30;99.90
6118;DHT22;3089;48.202;11.510;2023-08-06T14:49:12;16.30;99.90
6118;DHT22;3089;48.202;11.510;2023-08-06T14:51:40;16.30;99.90
6118;DHT22;3089;48.202;11.510;2023-08-06T14:54:08;16.30;99.90
6118;DHT22;3089;48.202;11.510;2023-08-06T14:56:37;16.30;99.90
6118;DHT22;3089;48.202;11.510;2023-08-06T14:59:05;16.30;99.90
6118;DHT22;3089;48.202;11.510;2023-08-06T15:01:33;16.40;99.90
6118;DHT22;3089;48.202;11.510;2023-08-06T15:04:00;16.30;99.90
6118;DHT22;3089;48.202;11.510;2023-08-06T15:06:28;16.30;99.90
6118;DHT22;3089;48.202;11.510;2023-08-06T15:08:57;16.20;99.90
6118;DHT22;3089;48.202;11.510;2023-08-06T15:11:27;16.20;99.90
6118;DHT22;3089;48.202;11.510;2023-08-06T15:13:56;16.20;99.90
6118;DHT22;3089;48.202;11.510;2023-08-06T15:16:24;16.10;99.90
6118;DHT22;3089;48.202;11.510;2023-08-06T15:18:52;16.10;99.90
6118;DHT22;3089;48.202;11.510;2023-08-06T15:21:21;16.10;99.90
6118;DHT22;3089;48.202;11.510;2023-08-06T15:23:49;16.10;99.90
6118;DHT22;3089;48.202;11.510;2023-08-06T15:26:17;16.00;99.90
6118;DHT22;3089;48.202;11.510;2023-08-06T15:28:46;16.10;99.90
6118;DHT22;3089;48.202;11.510;2023-08-06T15:31:19;16.20;99.90
6118;DHT22;3089;48.202;11.510;2023-08-06T15:33:47;16.10;99.90
6118;DHT22;3089;48.202;11.510;2023-08-06T15:36:15;16.20;99.90
6118;DHT22;3089;48.202;11.510;2023-08-06T15:38:43;16.10;99.90
6118;DHT22;3089;48.202;11.510;2023-08-06T15:41:11;16.00;99.90
6118;DHT22;3089;48.202;11.510;2023-08-06T15:43:39;16.00;99.90
6118;DHT22;3089;48.202;11.510;2023-08-06T15:46:08;16.00;99.90
6118;DHT22;3089;48.202;11.510;2023-08-06T15:48:37;16.00;99.90
6118;DHT22;3089;48.202;11.510;2023-08-06T15:51:06;16.00;99.90
6118;DHT22;3089;48.202;11.510;2023-08-06T15:53:34;15.90;99.90
6118;DHT22;3089;48.202;11.510;2023-08-06T15:56:03;15.80;99.90